createdAt,value
2022-12-27T00:01:42.187Z,55.28
2022-12-27T00:04:44.184Z,55.26
2022-12-27T00:07:46.215Z,55.23
2022-12-27T00:10:48.366Z,55.24
2022-12-27T00:13:50.901Z,55.24
2022-12-27T00:16:53.021Z,55.17
2022-12-27T00:19:55.263Z,55.16
2022-12-27T00:22:59.173Z,55.14
2022-12-27T00:26:03.822Z,55.11
2022-12-27T00:29:05.842Z,55.14
2022-12-27T00:32:07.967Z,55.10
2022-12-27T00:35:10.318Z,55.07
2022-12-27T00:38:12.342Z,55.04
2022-12-27T00:41:15.045Z,55.01
2022-12-27T00:44:17.121Z,55.04
2022-12-27T00:47:19.230Z,55.01
2022-12-27T00:50:21.425Z,54.94
2022-12-27T00:53:23.418Z,54.96
2022-12-27T00:56:31.020Z,54.91
2022-12-27T00:59:33.072Z,54.87
2022-12-27T01:02:35.192Z,54.87
2022-12-27T01:05:37.623Z,54.87
2022-12-27T01:08:40.135Z,54.85
2022-12-27T01:11:42.370Z,54.87
2022-12-27T01:14:44.872Z,54.82
2022-12-27T01:17:46.899Z,54.81
2022-12-27T01:20:48.994Z,54.81
2022-12-27T01:23:51.706Z,54.81
2022-12-27T01:26:53.698Z,54.78
2022-12-27T01:29:55.702Z,54.78
2022-12-27T01:32:57.838Z,54.75
2022-12-27T01:36:27.969Z,54.72
2022-12-27T01:39:30.112Z,54.75
2022-12-27T01:42:50.726Z,54.75
2022-12-27T01:45:52.894Z,54.68
2022-12-27T01:48:55.857Z,54.66
2022-12-27T01:51:58.347Z,54.65
2022-12-27T01:55:05.715Z,54.59
2022-12-27T01:58:12.959Z,54.65
2022-12-27T02:01:25.093Z,54.60
2022-12-27T02:04:30.816Z,54.62
2022-12-27T02:07:50.701Z,54.59
2022-12-27T02:10:53.529Z,54.57
2022-12-27T02:13:55.714Z,54.57
2022-12-27T02:17:00.194Z,54.59
2022-12-27T02:20:16.444Z,54.55
2022-12-27T02:24:03.064Z,54.58
2022-12-27T02:27:44.327Z,54.55
2022-12-27T02:30:49.696Z,54.52
2022-12-27T02:33:53.057Z,54.53
2022-12-27T02:37:01.701Z,54.52
2022-12-27T02:40:25.831Z,54.52
2022-12-27T02:43:47.168Z,54.49
2022-12-27T02:47:09.590Z,54.48
2022-12-27T02:50:32.650Z,54.45
2022-12-27T02:53:49.761Z,54.45
2022-12-27T02:57:11.905Z,54.44
2022-12-27T03:00:36.511Z,54.44
2022-12-27T03:04:16.985Z,54.40
2022-12-27T03:07:34.246Z,54.45
2022-12-27T03:11:16.809Z,54.42
2022-12-27T03:14:45.478Z,54.38
2022-12-27T03:18:00.596Z,54.39
2022-12-27T03:21:23.138Z,54.41
2022-12-27T03:24:49.155Z,54.36
2022-12-27T03:28:13.511Z,54.39
2022-12-27T03:31:43.049Z,54.38
2022-12-27T03:34:52.375Z,54.39
2022-12-27T03:38:05.401Z,54.42
2022-12-27T03:41:27.687Z,54.36
2022-12-27T03:44:29.854Z,54.41
2022-12-27T03:47:42.490Z,54.39
2022-12-27T03:50:49.950Z,54.42
2022-12-27T03:53:57.432Z,54.41
2022-12-27T03:57:06.041Z,54.41
2022-12-27T04:00:08.985Z,54.43
2022-12-27T04:03:11.119Z,54.39
2022-12-27T04:06:13.347Z,54.39
2022-12-27T04:09:33.845Z,54.44
2022-12-27T04:12:54.789Z,54.42
2022-12-27T04:16:15.488Z,54.49
2022-12-27T04:19:36.435Z,54.53
2022-12-27T04:22:57.232Z,54.55
2022-12-27T04:26:18.282Z,54.56
2022-12-27T04:29:38.900Z,54.63
2022-12-27T04:32:59.716Z,54.68
2022-12-27T04:36:06.215Z,54.63
2022-12-27T04:39:08.640Z,54.21
2022-12-27T04:42:29.327Z,53.80
2022-12-27T04:45:50.202Z,53.58
2022-12-27T04:49:11.086Z,53.48
2022-12-27T04:52:40.550Z,53.20
2022-12-27T04:55:42.587Z,52.86
2022-12-27T04:59:04.596Z,52.71
2022-12-27T05:02:06.774Z,52.69
2022-12-27T05:05:10.008Z,52.72
2022-12-27T05:08:32.045Z,52.74
2022-12-27T05:11:52.964Z,52.78
2022-12-27T05:14:55.047Z,52.78
2022-12-27T05:17:57.659Z,52.82
2022-12-27T05:21:06.410Z,52.72
2022-12-27T05:24:27.115Z,52.54
2022-12-27T05:27:29.323Z,52.41
2022-12-27T05:30:34.428Z,52.45
2022-12-27T05:33:36.429Z,52.40
2022-12-27T05:36:38.481Z,52.48
2022-12-27T05:39:40.511Z,52.54
2022-12-27T05:42:42.565Z,52.62
2022-12-27T05:45:44.551Z,52.61
2022-12-27T05:48:46.994Z,52.41
2022-12-27T05:51:49.056Z,52.04
2022-12-27T05:54:51.110Z,51.78
2022-12-27T05:57:53.143Z,51.70
2022-12-27T06:00:55.393Z,51.69
2022-12-27T06:03:57.454Z,51.83
2022-12-27T06:06:59.516Z,51.89
2022-12-27T06:10:01.549Z,51.91
2022-12-27T06:13:04.310Z,51.98
2022-12-27T06:16:08.211Z,52.05
2022-12-27T06:19:10.388Z,52.05
2022-12-27T06:22:12.417Z,51.88
2022-12-27T06:25:14.692Z,51.77
2022-12-27T06:28:16.714Z,51.73
2022-12-27T06:31:20.664Z,51.81
2022-12-27T06:34:22.810Z,51.85
2022-12-27T06:37:24.860Z,51.81
2022-12-27T06:40:26.870Z,51.71
2022-12-27T06:43:28.899Z,51.54
2022-12-27T06:46:30.981Z,51.48
2022-12-27T06:49:33.022Z,51.44
2022-12-27T06:52:35.010Z,51.53
2022-12-27T06:55:37.111Z,51.75
2022-12-27T06:58:40.285Z,51.79
2022-12-27T07:01:42.853Z,51.64
2022-12-27T07:04:45.075Z,51.60
2022-12-27T07:07:47.739Z,51.71
2022-12-27T07:10:49.861Z,51.87
2022-12-27T07:13:54.365Z,51.90
2022-12-27T07:16:56.457Z,51.87
2022-12-27T07:19:58.550Z,51.78
2022-12-27T07:23:00.722Z,51.75
2022-12-27T07:26:08.077Z,51.72
2022-12-27T07:29:10.275Z,51.76
2022-12-27T07:32:12.339Z,51.72
2022-12-27T07:35:14.495Z,51.56
2022-12-27T07:38:16.661Z,51.37
2022-12-27T07:41:18.918Z,51.33
2022-12-27T07:44:20.982Z,51.31
2022-12-27T07:47:22.970Z,51.46
2022-12-27T07:50:24.992Z,51.37
2022-12-27T07:53:27.155Z,51.33
2022-12-27T07:56:29.616Z,51.17
2022-12-27T07:59:31.631Z,51.27
2022-12-27T08:02:33.733Z,51.39
2022-12-27T08:05:35.787Z,51.56
2022-12-27T08:08:43.301Z,51.81
2022-12-27T08:11:45.299Z,51.76
2022-12-27T08:14:47.341Z,51.73
2022-12-27T08:17:49.355Z,51.67
2022-12-27T08:20:51.514Z,51.80
2022-12-27T08:23:53.628Z,51.90
2022-12-27T08:26:55.632Z,52.04
2022-12-27T08:29:57.687Z,52.31
2022-12-27T08:33:02.099Z,52.59
2022-12-27T08:36:28.575Z,52.77
2022-12-27T08:39:28.400Z,52.59
2022-12-27T08:42:30.393Z,52.40
2022-12-27T08:45:32.453Z,52.50
2022-12-27T08:48:37.339Z,47.53
2022-12-27T08:51:41.506Z,42.14
2022-12-27T08:54:43.716Z,46.91
2022-12-27T08:57:45.671Z,46.52
2022-12-27T09:00:47.667Z,46.81
2022-12-27T09:03:49.720Z,47.79
2022-12-27T09:06:51.812Z,48.66
2022-12-27T09:09:53.863Z,49.17
2022-12-27T09:12:55.940Z,49.29
2022-12-27T09:15:57.988Z,49.46
2022-12-27T09:19:00.808Z,49.50
2022-12-27T09:22:02.838Z,49.40
2022-12-27T09:25:05.559Z,49.73
2022-12-27T09:28:07.944Z,50.21
2022-12-27T09:31:11.731Z,50.79
2022-12-27T09:34:14.002Z,51.34
2022-12-27T09:37:16.042Z,50.93
2022-12-27T09:40:21.320Z,50.54
2022-12-27T09:43:40.302Z,50.14
2022-12-27T09:47:00.400Z,50.46
2022-12-27T09:50:10.472Z,51.10
2022-12-27T09:53:23.949Z,51.31
2022-12-27T09:56:54.104Z,51.46
2022-12-27T09:59:59.651Z,51.06
2022-12-27T10:03:05.183Z,50.04
2022-12-27T10:06:21.734Z,49.20
2022-12-27T10:09:42.665Z,48.20
2022-12-27T10:13:05.884Z,47.97
2022-12-27T10:16:28.610Z,47.99
2022-12-27T10:19:55.788Z,48.22
2022-12-27T10:23:06.711Z,48.53
2022-12-27T10:26:15.996Z,48.60
2022-12-27T10:29:22.754Z,48.66
2022-12-27T10:32:25.325Z,48.82
2022-12-27T10:35:28.867Z,49.05
2022-12-27T10:38:34.949Z,49.21
2022-12-27T10:41:36.935Z,49.31
2022-12-27T10:44:38.947Z,49.37
2022-12-27T10:47:41.260Z,49.44
2022-12-27T10:50:49.751Z,49.52
2022-12-27T10:53:57.906Z,49.66
2022-12-27T10:57:29.471Z,49.89
2022-12-27T11:00:31.549Z,49.92
2022-12-27T11:03:35.268Z,49.87
2022-12-27T11:06:37.581Z,49.90
2022-12-27T11:09:48.424Z,49.91
2022-12-27T11:13:04.718Z,50.03
2022-12-27T11:16:13.152Z,50.12
2022-12-27T11:19:26.926Z,50.17
2022-12-27T11:22:29.228Z,50.21
2022-12-27T11:25:31.912Z,50.13
2022-12-27T11:28:41.653Z,49.89
2022-12-27T11:31:48.315Z,49.84
2022-12-27T11:34:54.017Z,50.14
2022-12-27T11:37:56.354Z,50.37
2022-12-27T11:41:16.060Z,50.63
2022-12-27T11:44:29.180Z,50.84
2022-12-27T11:47:37.628Z,51.00
2022-12-27T11:51:05.914Z,51.21
2022-12-27T11:54:43.478Z,51.37
2022-12-27T11:58:23.125Z,51.45
2022-12-27T12:01:48.441Z,51.58
2022-12-27T12:05:09.440Z,51.64
2022-12-27T12:08:17.563Z,51.57
2022-12-27T12:11:40.292Z,51.53
2022-12-27T12:15:06.973Z,51.50
2022-12-27T12:22:36.751Z,51.59
2022-12-27T12:26:05.704Z,51.54
2022-12-27T12:29:28.702Z,51.33
2022-12-27T12:32:47.913Z,51.46
2022-12-27T12:35:58.916Z,51.42
2022-12-27T12:39:20.037Z,51.55
2022-12-27T12:42:42.369Z,51.73
2022-12-27T12:46:23.807Z,52.43
2022-12-27T12:49:43.132Z,52.65
2022-12-27T12:53:13.293Z,52.48
2022-12-27T12:56:43.451Z,52.27
2022-12-27T13:00:02.322Z,52.59
2022-12-27T13:03:33.633Z,52.62
2022-12-27T13:07:02.164Z,52.86
2022-12-27T13:10:25.279Z,53.37
2022-12-27T13:13:37.737Z,53.48
2022-12-27T13:16:57.986Z,53.56
2022-12-27T13:20:29.020Z,53.55
2022-12-27T13:23:46.454Z,53.48
2022-12-27T13:27:14.841Z,53.39
2022-12-27T13:30:28.200Z,53.41
2022-12-27T13:33:45.370Z,53.09
2022-12-27T13:37:06.465Z,53.03
2022-12-27T13:40:30.550Z,52.90
2022-12-27T13:44:05.091Z,52.80
2022-12-27T13:48:00.971Z,52.71
2022-12-27T13:51:26.319Z,52.69
2022-12-27T13:54:46.725Z,52.60
2022-12-27T13:58:27.369Z,52.69
2022-12-27T14:01:59.276Z,52.66
2022-12-27T14:05:01.263Z,52.62
2022-12-27T14:08:18.608Z,52.66
2022-12-27T14:11:32.131Z,52.49
2022-12-27T14:14:38.452Z,52.61
2022-12-27T14:18:09.888Z,52.63
2022-12-27T14:21:23.937Z,52.59
2022-12-27T14:24:53.247Z,52.59
2022-12-27T14:28:26.467Z,52.60
2022-12-27T14:31:34.781Z,52.57
2022-12-27T14:35:22.283Z,52.62
2022-12-27T14:38:44.998Z,52.44
2022-12-27T14:42:05.319Z,52.52
2022-12-27T14:45:39.894Z,52.52
2022-12-27T14:49:03.629Z,52.55
2022-12-27T14:52:45.124Z,52.51
2022-12-27T14:56:31.008Z,52.46
2022-12-27T14:59:41.767Z,52.43
2022-12-27T15:03:41.834Z,52.45
2022-12-27T15:06:57.211Z,52.45
2022-12-27T15:10:15.750Z,52.39
2022-12-27T15:14:02.350Z,52.43
2022-12-27T15:17:19.578Z,52.46
2022-12-27T15:20:41.255Z,52.52
2022-12-27T15:23:58.784Z,52.52
2022-12-27T15:27:04.956Z,52.53
2022-12-27T15:30:28.803Z,52.65
2022-12-27T15:33:59.926Z,52.62
2022-12-27T15:37:02.336Z,52.65
2022-12-27T15:40:24.654Z,52.58
2022-12-27T15:44:04.964Z,52.65
2022-12-27T15:47:12.891Z,52.63
2022-12-27T15:50:26.537Z,52.59
2022-12-27T15:54:12.232Z,52.56
2022-12-27T15:57:20.040Z,52.34
2022-12-27T16:00:26.541Z,52.49
2022-12-27T16:03:39.269Z,52.72
2022-12-27T16:06:44.103Z,52.98
2022-12-27T16:09:46.282Z,53.06
2022-12-27T16:12:51.603Z,52.97
2022-12-27T16:15:55.024Z,53.05
2022-12-27T16:19:08.801Z,52.94
2022-12-27T16:22:29.598Z,52.94
2022-12-27T16:25:35.924Z,52.91
2022-12-27T16:28:38.147Z,52.84
2022-12-27T16:31:45.875Z,52.70
2022-12-27T16:34:51.554Z,52.49
2022-12-27T16:37:55.802Z,51.94
2022-12-27T16:41:24.756Z,52.27
2022-12-27T16:44:31.861Z,52.32
2022-12-27T16:47:58.686Z,52.33
2022-12-27T16:51:15.371Z,52.36
2022-12-27T16:54:45.821Z,52.39
2022-12-27T16:57:51.437Z,52.38
2022-12-27T17:00:56.377Z,52.44
2022-12-27T17:03:59.118Z,52.40
2022-12-27T17:07:05.645Z,52.40
2022-12-27T17:10:42.750Z,52.46
2022-12-27T17:13:52.708Z,52.40
2022-12-27T17:16:58.441Z,52.46
2022-12-27T17:20:04.347Z,52.49
2022-12-27T17:23:07.285Z,52.40
2022-12-27T17:26:46.995Z,52.31
2022-12-27T17:30:14.777Z,52.14
2022-12-27T17:33:27.191Z,52.08
2022-12-27T17:37:16.821Z,51.97
2022-12-27T17:40:43.868Z,52.01
2022-12-27T17:44:27.346Z,51.98
2022-12-27T17:48:01.800Z,52.03
2022-12-27T17:51:12.914Z,52.04
2022-12-27T17:54:44.821Z,52.01
2022-12-27T17:57:57.948Z,51.99
2022-12-27T18:01:02.732Z,51.95
2022-12-27T18:04:06.543Z,51.98
2022-12-27T18:07:12.739Z,51.99
2022-12-27T18:10:27.195Z,52.00
2022-12-27T18:13:37.488Z,52.03
2022-12-27T18:16:40.668Z,52.01
2022-12-27T18:19:42.768Z,52.03
2022-12-27T18:22:44.931Z,52.03
2022-12-27T18:25:56.805Z,51.97
2022-12-27T18:28:58.884Z,51.99
2022-12-27T18:32:09.245Z,51.98
2022-12-27T18:35:24.025Z,52.02
2022-12-27T18:38:38.231Z,52.02
2022-12-27T18:41:51.488Z,52.00
2022-12-27T18:45:08.362Z,52.04
2022-12-27T18:48:14.193Z,52.02
2022-12-27T18:51:19.285Z,52.07
2022-12-27T18:54:43.457Z,52.07
2022-12-27T18:57:46.083Z,52.08
2022-12-27T19:01:00.397Z,52.09
2022-12-27T19:04:28.345Z,52.07
2022-12-27T19:07:34.332Z,52.13
2022-12-27T19:10:37.522Z,52.06
2022-12-27T19:13:53.824Z,52.05
2022-12-27T19:17:04.052Z,52.04
2022-12-27T19:20:33.357Z,52.07
2022-12-27T19:23:39.800Z,52.07
2022-12-27T19:26:42.113Z,52.05
2022-12-27T19:29:50.110Z,52.07
2022-12-27T19:32:52.177Z,52.04
2022-12-27T19:35:54.771Z,52.07
2022-12-27T19:38:57.401Z,52.04
2022-12-27T19:42:03.274Z,52.05
2022-12-27T19:45:05.573Z,52.11
2022-12-27T19:48:07.955Z,52.10
2022-12-27T19:51:17.265Z,52.08
2022-12-27T19:54:21.375Z,52.05
2022-12-27T19:57:23.459Z,52.07
2022-12-27T20:00:25.653Z,52.04
2022-12-27T20:03:27.760Z,52.02
2022-12-27T20:06:31.700Z,52.04
2022-12-27T20:09:33.719Z,52.06
2022-12-27T20:12:35.813Z,52.04
2022-12-27T20:15:37.892Z,52.02
2022-12-27T20:18:41.045Z,52.06
2022-12-27T20:21:43.589Z,52.07
2022-12-27T20:24:47.079Z,52.06
2022-12-27T20:27:49.095Z,52.04
2022-12-27T20:30:51.130Z,52.03
2022-12-27T20:33:57.273Z,52.01
2022-12-27T20:37:18.495Z,52.02
2022-12-27T20:40:23.341Z,52.03
2022-12-27T20:43:25.363Z,52.02
2022-12-27T20:46:27.747Z,52.08
2022-12-27T20:49:32.251Z,52.07
2022-12-27T20:52:38.348Z,52.08
2022-12-27T20:55:42.976Z,52.07
2022-12-27T20:58:45.245Z,52.10
2022-12-27T21:01:51.604Z,52.11
2022-12-27T21:04:56.900Z,52.14
2022-12-27T21:07:58.895Z,52.10
2022-12-27T21:11:18.752Z,52.13
2022-12-27T21:14:20.960Z,52.20
2022-12-27T21:17:23.312Z,52.24
2022-12-27T21:20:25.297Z,52.28
2022-12-27T21:23:27.302Z,52.45
2022-12-27T21:26:37.591Z,52.52
2022-12-27T21:29:39.617Z,52.57
2022-12-27T21:32:41.778Z,52.62
2022-12-27T21:35:43.786Z,52.70
2022-12-27T21:38:46.682Z,52.67
2022-12-27T21:41:48.784Z,52.72
2022-12-27T21:44:50.897Z,52.79
2022-12-27T21:47:52.925Z,52.82
2022-12-27T21:50:54.988Z,52.87
2022-12-27T21:53:57.576Z,52.85
2022-12-27T21:56:59.718Z,52.90
2022-12-27T22:00:01.782Z,52.94
2022-12-27T22:03:04.072Z,52.94
2022-12-27T22:06:29.097Z,52.99
2022-12-27T22:09:31.282Z,53.02
2022-12-27T22:12:33.407Z,53.04
2022-12-27T22:15:35.576Z,53.03
2022-12-27T22:18:41.499Z,53.04
2022-12-27T22:21:43.631Z,53.05
2022-12-27T22:24:45.633Z,53.07
2022-12-27T22:27:47.648Z,53.07
2022-12-27T22:30:49.729Z,53.08
2022-12-27T22:33:52.262Z,53.08
2022-12-27T22:36:54.409Z,53.12
2022-12-27T22:39:56.445Z,53.20
2022-12-27T22:42:58.523Z,53.27
2022-12-27T22:46:00.848Z,53.28
2022-12-27T22:49:03.352Z,53.31
2022-12-27T22:52:05.371Z,53.33
2022-12-27T22:55:08.175Z,53.30
2022-12-27T22:58:10.182Z,53.36
2022-12-27T23:01:18.278Z,53.32
2022-12-27T23:04:20.440Z,53.29
2022-12-27T23:08:04.588Z,53.29
2022-12-27T23:10:44.483Z,53.33
2022-12-27T23:13:47.962Z,53.32
2022-12-27T23:16:50.112Z,53.30
2022-12-27T23:19:52.112Z,53.28
2022-12-27T23:22:54.251Z,53.27
2022-12-27T23:26:03.446Z,53.33
2022-12-27T23:29:06.045Z,53.32
2022-12-27T23:32:08.152Z,53.33
2022-12-27T23:38:13.628Z,53.31
2022-12-27T23:41:18.166Z,53.33
2022-12-27T23:44:33.187Z,53.34
2022-12-27T23:47:36.783Z,53.30
2022-12-27T23:50:38.791Z,53.33
2022-12-27T23:53:41.399Z,53.32
2022-12-27T23:56:43.413Z,53.28
2022-12-27T23:59:45.443Z,53.31
